createdAt,value
2022-12-27T00:01:33.193Z,0.38
2022-12-27T00:04:01.345Z,0.60
2022-12-27T00:06:29.125Z,0.55
2022-12-27T00:08:56.498Z,0.45
2022-12-27T00:11:25.247Z,0.50
2022-12-27T00:13:52.348Z,0.50
2022-12-27T00:16:20.889Z,0.30
2022-12-27T00:18:48.490Z,0.40
2022-12-27T00:21:18.301Z,0.60
2022-12-27T00:23:47.074Z,0.40
2022-12-27T00:26:15.827Z,0.50
2022-12-27T00:28:42.846Z,0.50
2022-12-27T00:31:09.723Z,0.80
2022-12-27T00:33:38.039Z,0.50
2022-12-27T00:36:07.274Z,0.73
2022-12-27T00:38:35.723Z,0.57
2022-12-27T00:41:03.325Z,0.80
2022-12-27T00:43:30.218Z,0.40
2022-12-27T00:45:57.544Z,0.40
2022-12-27T00:48:24.930Z,0.60
2022-12-27T00:50:58.260Z,0.45
2022-12-27T00:53:25.324Z,0.37
2022-12-27T00:55:53.576Z,0.50
2022-12-27T00:58:20.671Z,0.55
2022-12-27T01:00:47.548Z,0.93
2022-12-27T01:03:14.694Z,0.80
2022-12-27T01:05:41.498Z,0.50
2022-12-27T01:08:08.795Z,0.30
2022-12-27T01:10:36.037Z,0.50
2022-12-27T01:13:04.445Z,0.50
2022-12-27T01:15:31.204Z,0.60
2022-12-27T01:17:57.943Z,0.63
2022-12-27T01:20:24.765Z,0.60
2022-12-27T01:22:53.940Z,0.73
2022-12-27T01:25:20.738Z,0.57
2022-12-27T01:27:47.540Z,0.50
2022-12-27T01:30:15.745Z,0.50
2022-12-27T01:32:42.476Z,0.40
2022-12-27T01:35:09.634Z,0.40
2022-12-27T01:37:36.446Z,0.80
2022-12-27T01:40:03.622Z,0.55
2022-12-27T01:42:30.393Z,0.75
2022-12-27T01:44:57.839Z,0.60
2022-12-27T01:47:33.300Z,0.50
2022-12-27T01:50:06.982Z,0.60
2022-12-27T01:52:41.040Z,0.70
2022-12-27T01:55:14.186Z,0.50
2022-12-27T01:57:41.622Z,0.80
2022-12-27T02:00:09.903Z,0.50
2022-12-27T02:02:39.118Z,0.60
2022-12-27T02:05:07.726Z,0.60
2022-12-27T02:07:42.715Z,0.63
2022-12-27T02:10:10.630Z,0.57
2022-12-27T02:12:38.144Z,0.60
2022-12-27T02:15:05.508Z,0.70
2022-12-27T02:17:33.384Z,0.52
2022-12-27T02:20:09.813Z,0.60
2022-12-27T02:23:16.699Z,0.60
2022-12-27T02:26:04.331Z,0.35
2022-12-27T02:28:49.274Z,0.40
2022-12-27T02:31:20.884Z,0.60
2022-12-27T02:33:50.564Z,0.95
2022-12-27T02:36:23.818Z,0.63
2022-12-27T02:38:55.645Z,0.70
2022-12-27T02:41:22.402Z,0.75
2022-12-27T02:43:53.271Z,0.70
2022-12-27T02:46:23.491Z,0.50
2022-12-27T02:48:52.489Z,0.80
2022-12-27T02:51:33.929Z,0.85
2022-12-27T02:54:14.042Z,0.70
2022-12-27T02:56:46.405Z,0.65
2022-12-27T02:59:27.219Z,0.60
2022-12-27T03:02:04.153Z,0.75
2022-12-27T03:04:46.671Z,0.50
2022-12-27T03:07:26.679Z,0.60
2022-12-27T03:10:07.736Z,0.40
2022-12-27T03:12:47.150Z,0.70
2022-12-27T03:15:33.245Z,0.65
2022-12-27T03:18:06.695Z,0.60
2022-12-27T03:20:34.919Z,0.52
2022-12-27T03:23:03.687Z,0.70
2022-12-27T03:25:33.577Z,0.77
2022-12-27T03:28:04.212Z,0.50
2022-12-27T03:30:32.447Z,0.70
2022-12-27T03:33:03.138Z,0.70
2022-12-27T03:35:34.508Z,0.73
2022-12-27T03:38:03.864Z,0.57
2022-12-27T03:40:41.551Z,0.40
2022-12-27T03:43:12.391Z,0.77
2022-12-27T03:45:51.634Z,0.50
2022-12-27T03:48:22.710Z,0.80
2022-12-27T03:50:54.609Z,0.60
2022-12-27T03:53:25.589Z,0.63
2022-12-27T03:55:52.804Z,0.60
2022-12-27T03:58:20.016Z,1.08
2022-12-27T04:00:48.163Z,0.50
2022-12-27T04:03:14.981Z,0.63
2022-12-27T04:05:41.708Z,0.85
2022-12-27T04:08:08.429Z,0.50
2022-12-27T04:10:35.137Z,0.77
2022-12-27T04:13:01.863Z,0.60
2022-12-27T04:15:28.617Z,0.63
2022-12-27T04:17:56.726Z,0.73
2022-12-27T04:20:23.823Z,0.80
2022-12-27T04:22:50.543Z,1.00
2022-12-27T04:25:17.419Z,0.50
2022-12-27T04:27:44.155Z,0.60
2022-12-27T04:30:11.313Z,0.80
2022-12-27T04:32:38.015Z,0.85
2022-12-27T04:35:06.843Z,0.85
2022-12-27T04:37:33.642Z,0.70
2022-12-27T04:40:00.400Z,0.90
2022-12-27T04:42:27.093Z,0.65
2022-12-27T04:44:53.826Z,0.95
2022-12-27T04:47:22.124Z,0.95
2022-12-27T04:49:48.864Z,0.80
2022-12-27T04:52:19.173Z,0.70
2022-12-27T04:54:45.881Z,0.57
2022-12-27T04:57:12.614Z,0.60
2022-12-27T04:59:39.343Z,0.80
2022-12-27T05:02:06.156Z,0.68
2022-12-27T05:04:35.258Z,0.70
2022-12-27T05:07:02.777Z,0.70
2022-12-27T05:09:30.854Z,0.73
2022-12-27T05:11:57.599Z,0.70
2022-12-27T05:14:24.416Z,0.90
2022-12-27T05:16:51.279Z,0.70
2022-12-27T05:19:18.038Z,0.60
2022-12-27T05:21:45.547Z,0.75
2022-12-27T05:24:12.308Z,0.70
2022-12-27T05:26:40.717Z,0.70
2022-12-27T05:29:08.535Z,0.70
2022-12-27T05:31:35.474Z,0.70
2022-12-27T05:34:02.308Z,0.57
2022-12-27T05:36:29.152Z,0.50
2022-12-27T05:38:56.171Z,0.70
2022-12-27T05:41:22.865Z,0.45
2022-12-27T05:43:50.933Z,0.57
2022-12-27T05:46:19.405Z,0.40
2022-12-27T05:48:46.823Z,0.63
2022-12-27T05:51:16.585Z,0.60
2022-12-27T05:53:43.584Z,0.55
2022-12-27T05:56:13.481Z,0.40
2022-12-27T05:58:40.170Z,0.60
2022-12-27T06:01:10.776Z,0.60
2022-12-27T06:03:38.079Z,1.05
2022-12-27T06:06:07.756Z,0.70
2022-12-27T06:08:35.502Z,0.73
2022-12-27T06:11:07.413Z,0.40
2022-12-27T06:13:34.235Z,0.88
2022-12-27T06:16:02.141Z,0.90
2022-12-27T06:18:32.282Z,1.05
2022-12-27T06:21:03.030Z,0.40
2022-12-27T06:23:29.927Z,0.68
2022-12-27T06:25:56.677Z,0.70
2022-12-27T06:28:23.511Z,0.50
2022-12-27T06:30:50.253Z,0.60
2022-12-27T06:33:16.987Z,0.63
2022-12-27T06:35:45.062Z,0.70
2022-12-27T06:38:11.812Z,0.98
2022-12-27T06:40:38.510Z,0.57
2022-12-27T06:43:05.228Z,0.70
2022-12-27T06:45:32.034Z,0.65
2022-12-27T06:47:58.839Z,0.88
2022-12-27T06:50:25.552Z,0.70
2022-12-27T06:52:53.765Z,0.70
2022-12-27T06:55:20.751Z,0.57
2022-12-27T06:57:47.486Z,0.70
2022-12-27T07:00:15.032Z,0.68
2022-12-27T07:02:42.299Z,0.50
2022-12-27T07:05:09.329Z,0.70
2022-12-27T07:07:36.020Z,0.95
2022-12-27T07:10:04.616Z,0.73
2022-12-27T07:12:36.429Z,0.50
2022-12-27T07:15:04.492Z,0.50
2022-12-27T07:17:31.172Z,0.70
2022-12-27T07:19:57.868Z,0.85
2022-12-27T07:22:24.663Z,0.85
2022-12-27T07:24:51.413Z,0.77
2022-12-27T07:27:19.440Z,0.68
2022-12-27T07:29:46.274Z,0.55
2022-12-27T07:32:13.102Z,0.90
2022-12-27T07:34:39.865Z,0.80
2022-12-27T07:37:06.560Z,0.77
2022-12-27T07:39:33.302Z,0.82
2022-12-27T07:42:06.308Z,1.10
2022-12-27T07:44:36.259Z,1.00
2022-12-27T07:47:02.996Z,0.95
2022-12-27T07:49:29.682Z,0.90
2022-12-27T07:51:56.394Z,0.93
2022-12-27T07:54:26.123Z,0.93
2022-12-27T07:56:52.855Z,0.90
2022-12-27T07:59:19.610Z,1.08
2022-12-27T08:01:47.752Z,0.70
2022-12-27T08:04:14.645Z,0.50
2022-12-27T08:06:41.362Z,0.93
2022-12-27T08:09:15.484Z,0.60
2022-12-27T08:14:08.780Z,1.10
2022-12-27T08:16:35.614Z,0.60
2022-12-27T08:19:08.325Z,0.50
2022-12-27T08:21:35.495Z,0.73
2022-12-27T08:24:02.250Z,0.85
2022-12-27T08:26:29.023Z,0.93
2022-12-27T08:28:55.757Z,1.15
2022-12-27T08:31:22.528Z,0.88
2022-12-27T08:33:52.451Z,1.00
2022-12-27T08:39:11.346Z,1.02
2022-12-27T08:41:38.331Z,1.10
2022-12-27T08:44:05.272Z,1.20
2022-12-27T08:46:31.989Z,1.15
2022-12-27T08:48:58.959Z,1.13
2022-12-27T08:51:35.993Z,1.17
2022-12-27T08:54:07.566Z,1.23
2022-12-27T08:56:34.312Z,1.10
2022-12-27T08:59:01.318Z,0.80
2022-12-27T09:01:28.216Z,0.90
2022-12-27T09:03:55.031Z,0.80
2022-12-27T09:06:23.492Z,1.70
2022-12-27T09:08:55.350Z,0.90
2022-12-27T09:11:23.977Z,1.27
2022-12-27T09:13:50.965Z,1.27
2022-12-27T09:16:20.097Z,1.05
2022-12-27T09:18:49.793Z,1.00
2022-12-27T09:21:17.196Z,1.48
2022-12-27T09:23:44.886Z,0.98
2022-12-27T09:26:14.684Z,1.40
2022-12-27T09:28:42.356Z,0.77
2022-12-27T09:31:10.037Z,1.17
2022-12-27T09:33:37.431Z,1.25
2022-12-27T09:36:06.662Z,0.85
2022-12-27T09:38:33.723Z,1.08
2022-12-27T09:41:03.794Z,1.10
2022-12-27T09:43:39.853Z,1.08
2022-12-27T09:46:12.814Z,0.70
2022-12-27T09:48:40.501Z,0.60
2022-12-27T09:51:17.495Z,0.63
2022-12-27T09:53:50.398Z,0.98
2022-12-27T09:56:22.983Z,1.17
2022-12-27T09:58:53.205Z,0.75
2022-12-27T10:01:23.812Z,0.73
2022-12-27T10:03:51.497Z,0.57
2022-12-27T10:06:40.777Z,0.60
2022-12-27T10:09:25.547Z,0.63
2022-12-27T10:12:00.795Z,0.60
2022-12-27T10:14:38.126Z,0.52
2022-12-27T10:17:17.112Z,0.50
2022-12-27T10:19:49.634Z,0.45
2022-12-27T10:22:29.601Z,0.57
2022-12-27T10:24:59.831Z,0.65
2022-12-27T10:27:29.273Z,0.80
2022-12-27T10:29:59.507Z,0.50
2022-12-27T10:32:27.044Z,0.30
2022-12-27T10:34:57.418Z,0.82
2022-12-27T10:37:24.282Z,0.47
2022-12-27T10:39:51.063Z,0.63
2022-12-27T10:42:31.349Z,0.60
2022-12-27T10:45:30.494Z,1.55
2022-12-27T10:48:10.056Z,0.30
2022-12-27T10:50:37.809Z,0.52
2022-12-27T10:53:04.605Z,0.70
2022-12-27T10:55:36.089Z,0.68
2022-12-27T10:58:35.587Z,0.60
2022-12-27T11:01:03.796Z,0.70
2022-12-27T11:03:30.567Z,0.47
2022-12-27T11:06:02.214Z,0.52
2022-12-27T11:08:30.221Z,0.40
2022-12-27T11:11:20.376Z,0.60
2022-12-27T11:13:47.368Z,0.47
2022-12-27T11:16:19.596Z,0.50
2022-12-27T11:18:50.001Z,0.75
2022-12-27T11:21:25.833Z,0.65
2022-12-27T11:23:58.213Z,0.70
2022-12-27T11:26:27.999Z,0.70
2022-12-27T11:28:57.491Z,0.50
2022-12-27T11:31:35.461Z,1.15
2022-12-27T11:34:05.910Z,0.60
2022-12-27T11:36:37.089Z,0.90
2022-12-27T11:39:05.203Z,1.02
2022-12-27T11:41:39.567Z,0.73
2022-12-27T11:44:16.277Z,0.77
2022-12-27T11:46:53.923Z,1.15
2022-12-27T11:49:28.714Z,1.00
2022-12-27T11:52:19.705Z,1.60
2022-12-27T11:55:17.128Z,0.40
2022-12-27T11:58:08.174Z,0.82
2022-12-27T12:00:43.931Z,0.88
2022-12-27T12:03:45.466Z,0.50
2022-12-27T12:06:19.266Z,0.65
2022-12-27T12:09:07.472Z,0.40
2022-12-27T12:11:54.641Z,0.30
2022-12-27T12:14:49.283Z,0.50
2022-12-27T12:17:38.734Z,0.43
2022-12-27T12:20:39.258Z,0.20
2022-12-27T12:23:12.406Z,0.50
2022-12-27T12:26:15.826Z,0.28
2022-12-27T12:29:09.425Z,0.57
2022-12-27T12:32:01.084Z,0.30
2022-12-27T12:34:45.154Z,0.40
2022-12-27T12:37:24.735Z,0.35
2022-12-27T12:40:27.395Z,0.10
2022-12-27T12:43:04.647Z,0.28
2022-12-27T12:45:48.850Z,0.30
2022-12-27T12:48:38.472Z,0.60
2022-12-27T12:51:50.431Z,0.40
2022-12-27T12:54:50.541Z,0.68
2022-12-27T12:57:32.020Z,0.45
2022-12-27T13:00:31.042Z,0.40
2022-12-27T13:03:25.602Z,0.73
2022-12-27T13:05:57.846Z,0.70
2022-12-27T13:08:31.063Z,0.40
2022-12-27T13:11:25.626Z,0.70
2022-12-27T13:14:16.177Z,0.90
2022-12-27T13:16:49.729Z,0.60
2022-12-27T13:19:44.063Z,0.57
2022-12-27T13:22:16.381Z,0.80
2022-12-27T13:24:58.750Z,0.55
2022-12-27T13:27:30.979Z,0.70
2022-12-27T13:30:07.413Z,0.70
2022-12-27T13:32:51.734Z,1.00
2022-12-27T13:35:30.254Z,0.40
2022-12-27T13:38:08.709Z,0.60
2022-12-27T13:40:55.381Z,0.52
2022-12-27T13:43:45.424Z,0.90
2022-12-27T13:46:42.075Z,0.93
2022-12-27T13:49:28.454Z,0.70
2022-12-27T13:52:08.740Z,0.45
2022-12-27T13:55:11.513Z,0.73
2022-12-27T13:58:04.400Z,0.68
2022-12-27T14:00:37.763Z,0.68
2022-12-27T14:03:23.016Z,0.57
2022-12-27T14:06:05.927Z,0.60
2022-12-27T14:08:57.013Z,0.70
2022-12-27T14:11:35.306Z,0.98
2022-12-27T14:14:03.170Z,0.50
2022-12-27T14:16:44.031Z,0.75
2022-12-27T14:19:31.840Z,0.90
2022-12-27T14:22:16.492Z,0.57
2022-12-27T14:25:32.908Z,0.50
2022-12-27T14:28:38.734Z,0.50
2022-12-27T14:31:48.157Z,0.45
2022-12-27T14:34:59.188Z,0.50
2022-12-27T14:37:57.985Z,5.13
2022-12-27T14:41:17.825Z,1.27
2022-12-27T14:44:28.380Z,1.10
2022-12-27T14:47:14.847Z,1.48
2022-12-27T14:50:25.302Z,0.70
2022-12-27T14:53:19.915Z,0.95
2022-12-27T14:55:58.063Z,1.90
2022-12-27T14:58:45.068Z,0.85
2022-12-27T15:01:23.134Z,1.10
2022-12-27T15:04:05.465Z,1.15
2022-12-27T15:06:57.786Z,0.68
2022-12-27T15:09:35.135Z,1.02
2022-12-27T15:12:23.882Z,0.77
2022-12-27T15:15:14.592Z,0.93
2022-12-27T15:17:56.731Z,0.73
2022-12-27T15:20:53.863Z,0.80
2022-12-27T15:23:28.538Z,0.77
2022-12-27T15:26:09.408Z,1.05
2022-12-27T15:28:55.928Z,2.58
2022-12-27T15:31:31.731Z,2.38
2022-12-27T15:34:13.624Z,1.67
2022-12-27T15:36:42.654Z,1.05
2022-12-27T15:39:42.863Z,4.07
2022-12-27T15:42:41.852Z,1.55
2022-12-27T15:45:23.630Z,2.05
2022-12-27T15:48:31.325Z,2.35
2022-12-27T15:51:04.125Z,1.90
2022-12-27T15:53:44.667Z,1.65
2022-12-27T15:56:42.765Z,1.10
2022-12-27T15:59:46.059Z,0.80
2022-12-27T16:02:33.191Z,0.70
2022-12-27T16:05:12.534Z,1.13
2022-12-27T16:07:45.056Z,0.80
2022-12-27T16:10:31.582Z,1.17
2022-12-27T16:13:01.365Z,1.10
2022-12-27T16:15:49.167Z,0.82
2022-12-27T16:18:58.082Z,0.90
2022-12-27T16:21:26.525Z,0.98
2022-12-27T16:23:57.926Z,1.25
2022-12-27T16:26:27.318Z,1.02
2022-12-27T16:28:57.924Z,1.25
2022-12-27T16:31:27.014Z,1.50
2022-12-27T16:33:56.232Z,1.60
2022-12-27T16:36:27.415Z,3.28
2022-12-27T16:39:25.472Z,3.80
2022-12-27T16:42:03.795Z,3.50
2022-12-27T16:44:56.062Z,2.83
2022-12-27T16:47:40.410Z,1.83
2022-12-27T16:50:40.748Z,2.65
2022-12-27T16:53:16.050Z,1.40
2022-12-27T16:56:06.818Z,1.20
2022-12-27T16:58:35.556Z,1.38
2022-12-27T17:01:03.364Z,1.50
2022-12-27T17:03:42.582Z,1.55
2022-12-27T17:06:46.669Z,2.20
2022-12-27T17:09:43.113Z,2.15
2022-12-27T17:12:22.787Z,2.67
2022-12-27T17:14:56.904Z,2.22
2022-12-27T17:19:56.806Z,2.00
2022-12-27T17:22:32.124Z,1.75
2022-12-27T17:25:02.783Z,1.88
2022-12-27T17:27:41.328Z,1.88
2022-12-27T17:30:21.427Z,2.00
2022-12-27T17:33:08.934Z,1.80
2022-12-27T17:35:46.019Z,2.63
2022-12-27T17:38:24.891Z,2.50
2022-12-27T17:41:03.145Z,1.90
2022-12-27T17:43:41.119Z,2.42
2022-12-27T17:46:23.828Z,2.90
2022-12-27T17:48:53.500Z,1.95
2022-12-27T17:51:24.133Z,2.63
2022-12-27T17:53:52.447Z,3.75
2022-12-27T17:56:22.862Z,3.58
2022-12-27T17:58:51.707Z,4.80
2022-12-27T18:01:20.644Z,4.13
2022-12-27T18:03:47.781Z,3.90
2022-12-27T18:06:19.095Z,5.13
2022-12-27T18:08:47.852Z,6.63
2022-12-27T18:11:15.376Z,7.68
2022-12-27T18:13:49.292Z,6.55
2022-12-27T18:16:20.647Z,9.23
2022-12-27T18:18:49.774Z,8.32
2022-12-27T18:21:23.102Z,9.02
2022-12-27T18:23:49.967Z,5.03
2022-12-27T18:26:16.673Z,5.50
2022-12-27T18:31:56.224Z,6.80
2022-12-27T18:34:28.408Z,6.30
2022-12-27T18:37:00.369Z,6.32
2022-12-27T18:39:32.422Z,6.43
2022-12-27T18:42:02.904Z,6.47
2022-12-27T18:44:41.799Z,4.85
2022-12-27T18:47:18.677Z,4.20
2022-12-27T18:49:45.721Z,4.53
2022-12-27T18:52:14.942Z,3.42
2022-12-27T18:54:42.503Z,5.28
2022-12-27T18:57:28.732Z,7.18
2022-12-27T19:00:14.597Z,5.13
2022-12-27T19:02:42.473Z,6.95
2022-12-27T19:05:28.094Z,6.18
2022-12-27T19:07:59.360Z,7.18
2022-12-27T19:10:29.033Z,8.23
2022-12-27T19:12:56.989Z,7.00
2022-12-27T19:15:27.507Z,8.85
2022-12-27T19:17:58.535Z,9.50
2022-12-27T19:20:27.773Z,9.98
2022-12-27T19:22:56.353Z,10.27
2022-12-27T19:25:25.729Z,9.48
2022-12-27T19:28:00.741Z,9.15
2022-12-27T19:30:34.378Z,7.80
2022-12-27T19:33:05.302Z,7.72
2022-12-27T19:35:32.049Z,6.35
2022-12-27T19:38:00.761Z,6.25
2022-12-27T19:40:27.630Z,7.07
2022-12-27T19:42:54.360Z,7.00
2022-12-27T19:45:21.176Z,7.32
2022-12-27T19:47:51.476Z,21.90
2022-12-27T19:50:18.180Z,26.08
2022-12-27T19:52:44.991Z,17.60
2022-12-27T19:55:17.696Z,9.05
2022-12-27T19:57:44.441Z,8.13
2022-12-27T20:00:14.972Z,9.38
2022-12-27T20:02:41.744Z,8.35
2022-12-27T20:05:10.883Z,10.13
2022-12-27T20:07:38.901Z,11.70
2022-12-27T20:10:08.171Z,10.65
2022-12-27T20:12:34.958Z,13.90
2022-12-27T20:15:01.846Z,13.07
2022-12-27T20:17:28.751Z,10.88
2022-12-27T20:19:55.489Z,10.23
2022-12-27T20:22:23.637Z,8.00
2022-12-27T20:24:50.386Z,7.38
2022-12-27T20:27:17.120Z,7.22
2022-12-27T20:29:43.948Z,10.82
2022-12-27T20:32:10.705Z,11.23
2022-12-27T20:34:37.514Z,10.15
2022-12-27T20:37:04.205Z,12.48
2022-12-27T20:39:32.323Z,11.63
2022-12-27T20:41:59.063Z,12.93
2022-12-27T20:44:25.789Z,12.00
2022-12-27T20:46:52.503Z,10.90
2022-12-27T20:49:19.343Z,9.27
2022-12-27T20:51:46.065Z,6.18
2022-12-27T20:54:13.595Z,6.55
2022-12-27T20:56:43.637Z,6.47
2022-12-27T20:59:11.027Z,8.80
2022-12-27T21:01:38.399Z,7.20
2022-12-27T21:04:06.425Z,9.32
2022-12-27T21:06:36.409Z,15.70
2022-12-27T21:09:04.549Z,10.68
2022-12-27T21:11:32.916Z,10.98
2022-12-27T21:14:05.349Z,6.82
2022-12-27T21:16:35.190Z,7.60
2022-12-27T21:19:02.795Z,8.48
2022-12-27T21:21:34.930Z,8.18
2022-12-27T21:24:03.959Z,8.10
2022-12-27T21:26:33.444Z,9.02
2022-12-27T21:29:05.520Z,9.13
2022-12-27T21:31:36.438Z,10.15
2022-12-27T21:34:07.634Z,8.30
2022-12-27T21:36:37.097Z,7.28
2022-12-27T21:39:05.121Z,7.40
2022-12-27T21:41:33.580Z,8.13
2022-12-27T21:44:02.244Z,7.93
2022-12-27T21:46:31.089Z,6.55
2022-12-27T21:48:59.181Z,6.45
2022-12-27T21:51:27.105Z,6.50
2022-12-27T21:53:54.096Z,6.63
2022-12-27T21:56:21.696Z,7.32
2022-12-27T21:58:49.072Z,7.22
2022-12-27T22:01:19.020Z,6.45
2022-12-27T22:03:48.243Z,11.32
2022-12-27T22:06:17.401Z,7.75
2022-12-27T22:08:45.475Z,9.30
2022-12-27T22:11:12.987Z,8.32
2022-12-27T22:13:39.959Z,6.22
2022-12-27T22:16:08.491Z,6.93
2022-12-27T22:18:37.896Z,7.22
2022-12-27T22:21:06.914Z,6.63
2022-12-27T22:23:34.905Z,6.63
2022-12-27T22:26:02.970Z,5.97
2022-12-27T22:28:29.686Z,6.53
2022-12-27T22:30:56.601Z,6.43
2022-12-27T22:33:23.968Z,6.95
2022-12-27T22:35:52.047Z,7.40
2022-12-27T22:38:18.781Z,6.93
2022-12-27T22:40:46.759Z,7.78
2022-12-27T22:43:14.149Z,8.00
2022-12-27T22:45:41.184Z,8.18
2022-12-27T22:48:07.945Z,7.20
2022-12-27T22:50:36.289Z,8.15
2022-12-27T22:53:04.417Z,7.60
2022-12-27T22:55:31.202Z,7.80
2022-12-27T22:57:57.924Z,8.70
2022-12-27T23:00:24.618Z,7.40
2022-12-27T23:02:51.408Z,7.38
2022-12-27T23:05:18.414Z,8.23
2022-12-27T23:08:04.547Z,7.90
2022-12-27T23:10:33.712Z,8.63
2022-12-27T23:13:00.467Z,8.15
2022-12-27T23:15:27.214Z,7.78
2022-12-27T23:17:53.941Z,8.70
2022-12-27T23:20:20.685Z,10.70
2022-12-27T23:22:47.390Z,9.65
2022-12-27T23:25:14.211Z,8.32
2022-12-27T23:27:42.267Z,9.38
2022-12-27T23:30:10.419Z,8.25
2022-12-27T23:32:37.173Z,7.57
2022-12-27T23:35:04.407Z,8.65
2022-12-27T23:37:31.099Z,7.57
2022-12-27T23:39:57.984Z,7.85
2022-12-27T23:42:24.685Z,7.80
2022-12-27T23:44:52.754Z,7.65
2022-12-27T23:47:19.638Z,7.68
2022-12-27T23:49:46.345Z,7.93
2022-12-27T23:52:13.051Z,6.63
2022-12-27T23:54:39.781Z,7.60
2022-12-27T23:57:19.822Z,7.82
2022-12-27T23:59:49.181Z,7.00
